createdAt,value
2022-12-15T00:01:31.704Z,16.83
2022-12-15T00:04:17.552Z,15.63
2022-12-15T00:07:02.926Z,13.05
2022-12-15T00:09:48.541Z,15.77
2022-12-15T00:12:34.075Z,17.17
2022-12-15T00:15:19.327Z,16.95
2022-12-15T00:18:04.877Z,15.93
2022-12-15T00:20:50.218Z,15.85
2022-12-15T00:23:35.660Z,16.65
2022-12-15T00:26:21.147Z,19.10
2022-12-15T00:29:06.451Z,19.90
2022-12-15T00:31:51.996Z,20.13
2022-12-15T00:34:37.588Z,17.60
2022-12-15T00:37:23.011Z,19.23
2022-12-15T00:39:59.442Z,18.83
2022-12-15T00:42:28.782Z,18.13
2022-12-15T00:44:56.433Z,20.10
2022-12-15T00:47:23.404Z,13.68
2022-12-15T00:50:08.812Z,16.92
2022-12-15T00:52:54.840Z,18.98
2022-12-15T00:55:40.244Z,14.15
2022-12-15T00:58:25.800Z,15.85
2022-12-15T01:01:11.175Z,16.92
2022-12-15T01:03:56.604Z,16.38
2022-12-15T01:06:42.176Z,20.27
2022-12-15T01:09:28.508Z,19.35
2022-12-15T01:12:13.867Z,16.00
2022-12-15T01:14:59.179Z,17.42
2022-12-15T01:17:44.530Z,16.20
2022-12-15T01:20:20.498Z,20.65
2022-12-15T01:22:54.959Z,18.33
2022-12-15T01:25:23.785Z,17.33
2022-12-15T01:27:50.711Z,15.75
2022-12-15T01:30:19.536Z,19.15
2022-12-15T01:32:46.652Z,14.30
2022-12-15T01:35:13.905Z,20.98
2022-12-15T01:37:40.749Z,15.55
2022-12-15T01:40:27.870Z,16.63
2022-12-15T01:42:54.759Z,17.15
2022-12-15T01:45:24.707Z,16.17
2022-12-15T01:47:52.681Z,14.70
2022-12-15T01:50:19.684Z,18.08
2022-12-15T01:52:49.731Z,18.70
2022-12-15T01:55:17.391Z,17.90
2022-12-15T01:57:44.337Z,15.00
2022-12-15T02:00:11.600Z,15.82
2022-12-15T02:02:40.576Z,15.40
2022-12-15T02:05:07.968Z,15.80
2022-12-15T02:07:34.889Z,16.17
2022-12-15T02:10:02.479Z,16.95
2022-12-15T02:12:50.691Z,15.02
2022-12-15T02:15:44.156Z,13.40
2022-12-15T02:18:15.197Z,15.15
2022-12-15T02:20:47.366Z,15.43
2022-12-15T02:23:33.318Z,21.17
2022-12-15T02:26:18.597Z,18.33
2022-12-15T02:29:23.007Z,12.90
2022-12-15T02:31:55.010Z,15.73
2022-12-15T02:34:23.546Z,14.65
2022-12-15T02:36:54.563Z,13.50
2022-12-15T02:39:22.987Z,20.20
2022-12-15T02:41:51.637Z,18.08
2022-12-15T02:44:25.513Z,20.00
2022-12-15T02:47:24.351Z,16.42
2022-12-15T02:50:05.427Z,14.45
2022-12-15T02:52:38.067Z,16.05
2022-12-15T02:55:28.902Z,15.80
2022-12-15T02:58:19.788Z,15.50
2022-12-15T03:00:50.177Z,16.33
2022-12-15T03:03:20.784Z,13.65
2022-12-15T03:05:49.406Z,13.80
2022-12-15T03:08:16.289Z,14.60
2022-12-15T03:10:43.258Z,13.48
2022-12-15T03:13:10.195Z,19.55
2022-12-15T03:15:37.106Z,16.70
2022-12-15T03:18:04.072Z,14.43
2022-12-15T03:20:31.246Z,18.02
2022-12-15T03:22:58.113Z,15.93
2022-12-15T03:25:25.055Z,15.13
2022-12-15T03:27:51.907Z,14.52
2022-12-15T03:30:18.924Z,17.80
2022-12-15T03:32:45.816Z,14.90
2022-12-15T03:35:13.040Z,14.38
2022-12-15T03:37:40.544Z,13.10
2022-12-15T03:40:08.055Z,13.32
2022-12-15T03:42:49.952Z,15.57
2022-12-15T03:45:18.467Z,13.95
2022-12-15T03:47:45.763Z,15.48
2022-12-15T03:50:13.586Z,11.75
2022-12-15T03:52:40.440Z,16.55
2022-12-15T03:55:07.683Z,15.57
2022-12-15T03:57:34.541Z,15.88
2022-12-15T04:00:01.507Z,13.20
2022-12-15T04:02:28.575Z,12.93
2022-12-15T04:04:55.603Z,12.82
2022-12-15T04:07:22.491Z,14.32
2022-12-15T04:09:49.371Z,15.05
2022-12-15T04:12:16.233Z,14.50
2022-12-15T04:14:43.088Z,15.07
2022-12-15T04:17:10.432Z,15.85
2022-12-15T04:19:56.225Z,15.43
2022-12-15T04:22:23.443Z,18.95
2022-12-15T04:25:09.118Z,17.10
2022-12-15T04:27:59.873Z,17.90
2022-12-15T04:30:46.769Z,17.85
2022-12-15T04:33:32.648Z,14.23
2022-12-15T04:36:18.551Z,15.05
2022-12-15T04:39:03.819Z,14.95
2022-12-15T04:41:49.584Z,16.65
2022-12-15T04:44:35.025Z,16.15
2022-12-15T04:47:20.352Z,14.40
2022-12-15T04:50:05.693Z,15.40
2022-12-15T04:52:51.048Z,16.77
2022-12-15T04:55:36.559Z,11.15
2022-12-15T04:58:26.070Z,11.80
2022-12-15T05:01:11.740Z,11.85
2022-12-15T05:03:57.512Z,15.57
2022-12-15T05:06:42.749Z,14.07
2022-12-15T05:09:28.108Z,14.10
2022-12-15T05:12:13.409Z,12.18
2022-12-15T05:14:58.847Z,15.32
2022-12-15T05:17:44.234Z,13.77
2022-12-15T05:20:29.538Z,11.48
2022-12-15T05:23:15.550Z,14.70
2022-12-15T05:26:01.460Z,13.80
2022-12-15T05:28:46.984Z,12.70
2022-12-15T05:31:32.584Z,14.13
2022-12-15T05:34:04.919Z,13.95
2022-12-15T05:36:32.292Z,13.35
2022-12-15T05:38:59.181Z,14.10
2022-12-15T05:41:26.093Z,14.60
2022-12-15T05:43:53.004Z,16.00
2022-12-15T05:46:20.033Z,13.48
2022-12-15T05:48:47.025Z,14.50
2022-12-15T05:51:14.063Z,15.35
2022-12-15T05:53:41.359Z,14.98
2022-12-15T05:56:12.876Z,13.98
2022-12-15T05:58:44.746Z,14.95
2022-12-15T06:01:16.831Z,15.00
2022-12-15T06:03:43.835Z,18.13
2022-12-15T06:06:11.233Z,14.63
2022-12-15T06:08:39.152Z,15.40
2022-12-15T06:11:06.247Z,13.90
2022-12-15T06:13:36.731Z,13.45
2022-12-15T06:16:10.191Z,14.88
2022-12-15T06:18:42.325Z,14.05
2022-12-15T06:21:14.080Z,14.77
2022-12-15T06:23:41.180Z,18.25
2022-12-15T06:26:16.011Z,17.40
2022-12-15T06:28:42.907Z,17.80
2022-12-15T06:31:11.114Z,17.98
2022-12-15T06:33:38.271Z,19.05
2022-12-15T06:36:06.829Z,16.20
2022-12-15T06:38:33.999Z,17.80
2022-12-15T06:41:01.610Z,18.60
2022-12-15T06:43:28.973Z,14.82
2022-12-15T06:45:56.181Z,12.98
2022-12-15T06:48:23.555Z,14.95
2022-12-15T06:50:50.615Z,13.73
2022-12-15T06:53:18.889Z,15.95
2022-12-15T06:55:45.835Z,13.43
2022-12-15T06:58:13.317Z,15.52
2022-12-15T07:00:41.004Z,14.63
2022-12-15T07:03:09.580Z,17.60
2022-12-15T07:05:36.581Z,14.93
2022-12-15T07:08:03.481Z,14.50
2022-12-15T07:10:30.363Z,17.00
2022-12-15T07:12:57.904Z,17.75
2022-12-15T07:15:25.100Z,16.80
2022-12-15T07:17:54.853Z,17.00
2022-12-15T07:20:26.974Z,15.75
2022-12-15T07:22:55.680Z,16.60
2022-12-15T07:25:22.610Z,19.85
2022-12-15T07:27:49.736Z,17.80
2022-12-15T07:30:17.678Z,17.65
2022-12-15T07:32:49.910Z,15.60
2022-12-15T07:35:17.973Z,19.13
2022-12-15T07:37:44.864Z,16.35
2022-12-15T07:40:12.084Z,18.30
2022-12-15T07:42:39.001Z,13.60
2022-12-15T07:45:07.415Z,18.25
2022-12-15T07:47:34.473Z,14.10
2022-12-15T07:50:01.521Z,16.00
2022-12-15T07:52:28.463Z,14.25
2022-12-15T07:54:55.346Z,17.65
2022-12-15T07:57:22.481Z,15.25
2022-12-15T07:59:50.057Z,14.68
2022-12-15T08:02:17.343Z,15.77
2022-12-15T08:04:44.307Z,15.52
2022-12-15T08:07:11.250Z,17.95
2022-12-15T08:09:38.114Z,18.17
2022-12-15T08:12:05.122Z,20.55
2022-12-15T08:14:32.307Z,14.70
2022-12-15T08:16:59.305Z,17.50
2022-12-15T08:19:26.285Z,15.15
2022-12-15T08:21:53.105Z,17.65
2022-12-15T08:24:20.049Z,17.65
2022-12-15T08:26:50.374Z,16.42
2022-12-15T08:29:50.602Z,20.50
2022-12-15T08:32:05.527Z,17.27
2022-12-15T08:34:32.461Z,18.00
2022-12-15T08:36:59.372Z,15.18
2022-12-15T08:39:26.292Z,19.33
2022-12-15T08:41:53.167Z,18.83
2022-12-15T08:44:20.128Z,14.45
2022-12-15T08:46:47.041Z,17.33
2022-12-15T08:49:19.573Z,20.92
2022-12-15T08:51:50.223Z,16.98
2022-12-15T08:54:18.059Z,15.88
2022-12-15T08:56:44.847Z,19.45
2022-12-15T08:59:11.807Z,21.08
2022-12-15T09:01:40.363Z,19.23
2022-12-15T09:04:07.551Z,37.72
2022-12-15T09:06:35.424Z,22.25
2022-12-15T09:09:07.685Z,24.25
2022-12-15T09:11:34.883Z,24.85
2022-12-15T09:14:01.763Z,17.17
2022-12-15T09:16:28.821Z,19.25
2022-12-15T09:18:57.087Z,18.48
2022-12-15T09:21:26.306Z,19.42
2022-12-15T09:23:54.978Z,18.13
2022-12-15T09:26:22.556Z,19.85
2022-12-15T09:28:50.900Z,17.80
2022-12-15T09:31:21.880Z,21.50
2022-12-15T09:33:49.856Z,17.70
2022-12-15T09:36:16.704Z,20.10
2022-12-15T09:38:43.789Z,18.90
2022-12-15T09:41:13.625Z,21.55
2022-12-15T09:43:58.719Z,21.58
2022-12-15T09:46:44.129Z,19.77
2022-12-15T09:49:38.922Z,22.35
2022-12-15T09:52:11.333Z,23.10
2022-12-15T09:54:41.870Z,21.77
2022-12-15T09:57:31.618Z,25.70
2022-12-15T10:00:12.382Z,25.48
2022-12-15T10:03:03.743Z,23.30
2022-12-15T10:08:17.678Z,25.10
2022-12-15T10:10:58.558Z,23.70
2022-12-15T10:13:38.075Z,22.48
2022-12-15T10:16:18.193Z,22.02
2022-12-15T10:19:03.301Z,24.88
2022-12-15T10:21:30.956Z,25.33
2022-12-15T10:24:01.407Z,24.95
2022-12-15T10:26:31.985Z,30.90
2022-12-15T10:29:19.243Z,40.97
2022-12-15T10:32:10.775Z,37.03
2022-12-15T10:34:40.458Z,34.13
2022-12-15T10:37:19.201Z,30.85
2022-12-15T10:39:50.275Z,34.88
2022-12-15T10:42:17.440Z,27.50
2022-12-15T10:44:45.459Z,27.52
2022-12-15T10:47:23.540Z,25.73
2022-12-15T10:49:50.569Z,30.15
2022-12-15T10:52:36.609Z,26.50
2022-12-15T10:55:31.406Z,32.88
2022-12-15T10:58:02.750Z,27.23
2022-12-15T11:00:31.303Z,26.83
2022-12-15T11:02:58.717Z,30.33
2022-12-15T11:05:26.137Z,33.13
2022-12-15T11:07:54.538Z,29.23
2022-12-15T11:10:49.989Z,30.13
2022-12-15T11:13:20.990Z,30.33
2022-12-15T11:18:38.903Z,26.08
2022-12-15T11:21:11.616Z,28.65
2022-12-15T11:23:46.706Z,30.58
2022-12-15T11:26:34.650Z,32.88
2022-12-15T11:29:23.334Z,35.05
2022-12-15T11:31:51.225Z,34.65
2022-12-15T11:34:25.940Z,30.40
2022-12-15T11:37:07.773Z,35.53
2022-12-15T11:39:43.048Z,32.15
2022-12-15T11:42:34.156Z,30.02
2022-12-15T11:45:19.129Z,30.02
2022-12-15T11:48:18.149Z,29.13
2022-12-15T11:51:06.951Z,30.95
2022-12-15T11:53:55.209Z,25.55
2022-12-15T11:56:35.704Z,28.90
2022-12-15T11:59:18.930Z,26.67
2022-12-15T12:02:03.503Z,32.90
2022-12-15T12:04:36.212Z,24.45
2022-12-15T12:07:11.362Z,29.40
2022-12-15T12:09:48.644Z,30.40
2022-12-15T12:12:30.620Z,30.73
2022-12-15T12:15:35.099Z,28.40
2022-12-15T12:18:06.716Z,27.60
2022-12-15T12:20:53.463Z,28.63
2022-12-15T12:23:39.214Z,30.13
2022-12-15T12:26:20.274Z,29.42
2022-12-15T12:29:00.483Z,29.25
2022-12-15T12:32:02.025Z,33.50
2022-12-15T12:35:30.848Z,28.33
2022-12-15T12:38:04.622Z,32.53
2022-12-15T12:40:41.071Z,37.15
2022-12-15T12:43:14.165Z,37.95
2022-12-15T12:46:06.418Z,31.75
2022-12-15T12:48:38.688Z,33.75
2022-12-15T12:51:20.956Z,31.45
2022-12-15T12:53:48.620Z,32.35
2022-12-15T12:56:32.331Z,35.45
2022-12-15T12:58:59.367Z,33.95
2022-12-15T13:01:33.763Z,31.67
2022-12-15T13:04:11.759Z,40.03
2022-12-15T13:06:41.566Z,34.65
2022-12-15T13:09:17.562Z,32.38
2022-12-15T13:11:48.973Z,30.23
2022-12-15T13:14:26.592Z,32.45
2022-12-15T13:17:27.030Z,34.67
2022-12-15T13:19:57.387Z,32.45
2022-12-15T13:22:42.858Z,29.58
2022-12-15T13:25:38.203Z,33.78
2022-12-15T13:28:24.527Z,30.73
2022-12-15T13:31:16.742Z,29.85
2022-12-15T13:33:55.706Z,32.05
2022-12-15T13:36:38.228Z,33.08
2022-12-15T13:39:17.108Z,32.03
2022-12-15T13:42:07.881Z,41.95
2022-12-15T13:44:40.899Z,31.40
2022-12-15T13:47:25.051Z,32.80
2022-12-15T13:50:02.770Z,30.35
2022-12-15T13:53:08.662Z,31.95
2022-12-15T13:55:28.260Z,29.88
2022-12-15T13:58:12.325Z,30.13
2022-12-15T14:00:39.365Z,29.80
2022-12-15T14:03:07.449Z,31.50
2022-12-15T14:05:34.371Z,30.38
2022-12-15T14:08:03.973Z,30.08
2022-12-15T14:10:34.743Z,32.92
2022-12-15T14:13:15.949Z,29.85
2022-12-15T14:16:15.360Z,36.28
2022-12-15T14:18:42.507Z,32.88
2022-12-15T14:21:26.956Z,30.08
2022-12-15T14:24:28.788Z,34.33
2022-12-15T14:26:42.363Z,28.65
2022-12-15T14:29:09.141Z,30.67
2022-12-15T14:31:35.956Z,28.67
2022-12-15T14:34:06.453Z,29.15
2022-12-15T14:36:33.314Z,32.38
2022-12-15T14:39:06.840Z,33.63
2022-12-15T14:41:35.672Z,28.52
2022-12-15T14:44:31.297Z,25.33
2022-12-15T14:46:55.144Z,26.30
2022-12-15T14:49:31.175Z,30.30
2022-12-15T14:52:02.371Z,30.63
2022-12-15T14:54:38.754Z,26.50
2022-12-15T14:57:21.925Z,34.42
2022-12-15T14:59:49.065Z,32.25
2022-12-15T15:02:29.303Z,35.80
2022-12-15T15:03:03.659Z,25.83
2022-12-15T15:03:11.381Z,31.23
2022-12-15T15:05:02.489Z,29.98
2022-12-15T15:07:30.313Z,34.30
2022-12-15T15:09:57.219Z,29.52
2022-12-15T15:12:25.123Z,25.05
2022-12-15T15:15:00.257Z,21.42
2022-12-15T15:17:44.454Z,23.33
2022-12-15T15:20:20.052Z,24.38
2022-12-15T15:22:47.295Z,23.70
2022-12-15T15:25:39.359Z,24.92
2022-12-15T15:28:16.303Z,23.75
2022-12-15T15:30:48.327Z,23.55
2022-12-15T15:33:15.857Z,28.17
2022-12-15T15:35:46.998Z,26.90
2022-12-15T15:38:24.558Z,26.20
2022-12-15T15:40:53.258Z,31.70
2022-12-15T15:43:20.216Z,28.20
2022-12-15T15:45:48.447Z,29.02
2022-12-15T15:48:18.833Z,27.70
2022-12-15T15:50:47.234Z,26.67
2022-12-15T15:53:17.210Z,26.58
2022-12-15T15:55:44.149Z,31.02
2022-12-15T15:58:12.330Z,26.08
2022-12-15T16:00:39.399Z,27.75
2022-12-15T16:03:06.590Z,33.38
2022-12-15T16:05:33.697Z,27.30
2022-12-15T16:08:00.918Z,26.80
2022-12-15T16:10:30.456Z,26.08
2022-12-15T16:12:58.513Z,29.45
2022-12-15T16:15:26.732Z,28.65
2022-12-15T16:17:53.938Z,34.58
2022-12-15T16:20:22.473Z,32.20
2022-12-15T16:22:59.725Z,33.78
2022-12-15T16:25:42.705Z,27.50
2022-12-15T16:28:20.717Z,34.05
2022-12-15T16:30:47.767Z,31.92
2022-12-15T16:33:14.760Z,32.42
2022-12-15T16:35:42.168Z,30.60
2022-12-15T16:38:31.102Z,28.35
2022-12-15T16:40:58.959Z,23.73
2022-12-15T16:43:29.001Z,35.53
2022-12-15T16:45:59.917Z,26.35
2022-12-15T16:48:26.817Z,27.10
2022-12-15T16:50:55.364Z,33.88
2022-12-15T16:53:26.822Z,32.17
2022-12-15T16:56:04.555Z,35.17
2022-12-15T16:58:32.098Z,30.27
2022-12-15T17:00:59.380Z,35.13
2022-12-15T17:03:29.279Z,39.42
2022-12-15T17:06:03.397Z,31.02
2022-12-15T17:08:47.944Z,31.85
2022-12-15T17:11:33.118Z,32.97
2022-12-15T17:14:02.034Z,36.15
2022-12-15T17:16:29.243Z,34.22
2022-12-15T17:18:58.692Z,33.80
2022-12-15T17:21:30.658Z,34.38
2022-12-15T17:24:04.221Z,27.63
2022-12-15T17:26:32.601Z,34.03
2022-12-15T17:29:01.561Z,35.92
2022-12-15T17:31:34.779Z,37.05
2022-12-15T17:34:30.678Z,34.58
2022-12-15T17:37:07.519Z,30.95
2022-12-15T17:39:34.790Z,49.03
2022-12-15T17:42:02.805Z,42.05
2022-12-15T17:44:37.306Z,36.92
2022-12-15T17:47:06.448Z,30.85
2022-12-15T17:49:36.405Z,36.28
2022-12-15T17:52:07.218Z,33.97
2022-12-15T17:54:34.065Z,33.75
2022-12-15T17:57:00.976Z,27.02
2022-12-15T17:59:27.863Z,25.65
2022-12-15T18:01:57.198Z,28.90
2022-12-15T18:04:24.477Z,22.90
2022-12-15T18:06:53.410Z,26.20
2022-12-15T18:09:27.386Z,25.48
2022-12-15T18:11:54.262Z,33.03
2022-12-15T18:14:25.135Z,32.03
2022-12-15T18:16:52.053Z,30.92
2022-12-15T18:19:21.256Z,32.58
2022-12-15T18:21:48.063Z,30.20
2022-12-15T18:24:16.995Z,23.13
2022-12-15T18:26:43.985Z,27.60
2022-12-15T18:29:17.537Z,25.77
2022-12-15T18:31:47.010Z,24.13
2022-12-15T18:34:18.212Z,21.75
2022-12-15T18:36:45.333Z,23.42
2022-12-15T18:39:19.760Z,23.58
2022-12-15T18:41:49.177Z,22.63
2022-12-15T18:44:24.821Z,26.13
2022-12-15T18:46:52.153Z,23.15
2022-12-15T18:49:20.476Z,24.65
2022-12-15T18:51:47.705Z,20.73
2022-12-15T18:54:21.351Z,23.63
2022-12-15T18:56:48.313Z,22.60
2022-12-15T18:59:16.140Z,20.77
2022-12-15T19:01:44.146Z,22.02
2022-12-15T19:04:11.287Z,22.38
2022-12-15T19:06:38.465Z,22.25
2022-12-15T19:09:07.891Z,21.98
2022-12-15T19:11:35.033Z,24.10
2022-12-15T19:14:02.808Z,25.20
2022-12-15T19:16:49.752Z,23.42
2022-12-15T19:19:35.316Z,23.42
2022-12-15T19:22:20.987Z,23.55
2022-12-15T19:24:57.179Z,22.02
2022-12-15T19:27:26.658Z,22.80
2022-12-15T19:29:54.623Z,25.20
2022-12-15T19:32:23.015Z,26.30
2022-12-15T19:34:50.922Z,26.55
2022-12-15T19:37:24.512Z,25.98
2022-12-15T19:39:51.648Z,26.00
2022-12-15T19:42:21.349Z,26.27
2022-12-15T19:44:48.485Z,25.15
2022-12-15T19:47:15.541Z,24.35
2022-12-15T19:49:43.042Z,22.60
2022-12-15T19:52:16.482Z,26.65
2022-12-15T19:54:44.061Z,27.90
2022-12-15T19:57:14.996Z,25.05
2022-12-15T19:59:41.882Z,28.52
2022-12-15T20:02:18.902Z,25.88
2022-12-15T20:04:46.419Z,21.25
2022-12-15T20:07:28.554Z,23.90
2022-12-15T20:09:58.139Z,28.52
2022-12-15T20:12:25.202Z,23.40
2022-12-15T20:14:52.475Z,31.15
2022-12-15T20:17:19.356Z,25.73
2022-12-15T20:19:46.353Z,31.25
2022-12-15T20:22:17.335Z,27.52
2022-12-15T20:24:44.423Z,31.15
2022-12-15T20:27:15.463Z,25.10
2022-12-15T20:29:42.347Z,29.25
2022-12-15T20:32:20.075Z,33.33
2022-12-15T20:34:49.779Z,25.15
2022-12-15T20:37:28.256Z,28.23
2022-12-15T20:39:57.655Z,25.10
2022-12-15T20:42:24.875Z,25.67
2022-12-15T20:44:51.784Z,26.05
2022-12-15T20:47:24.749Z,29.88
2022-12-15T20:49:51.693Z,26.60
2022-12-15T20:52:23.818Z,24.90
2022-12-15T20:54:51.427Z,26.13
2022-12-15T20:57:18.328Z,27.15
2022-12-15T20:59:45.375Z,25.60
2022-12-15T21:02:22.371Z,25.00
2022-12-15T21:04:50.210Z,24.08
2022-12-15T21:07:17.067Z,24.40
2022-12-15T21:09:46.465Z,23.42
2022-12-15T21:12:21.024Z,26.85
2022-12-15T21:14:50.987Z,23.02
2022-12-15T21:17:21.086Z,24.25
2022-12-15T21:19:48.709Z,29.35
2022-12-15T21:22:26.518Z,25.77
2022-12-15T21:24:54.625Z,21.20
2022-12-15T21:27:21.645Z,25.13
2022-12-15T21:29:52.376Z,21.50
2022-12-15T21:32:20.218Z,25.23
2022-12-15T21:34:47.112Z,21.30
2022-12-15T21:37:24.165Z,23.48
2022-12-15T21:39:51.122Z,19.08
2022-12-15T21:42:18.001Z,24.60
2022-12-15T21:44:45.103Z,21.13
2022-12-15T21:47:25.610Z,26.60
2022-12-15T21:49:52.755Z,21.85
2022-12-15T21:52:19.559Z,22.65
2022-12-15T21:54:46.384Z,25.13
2022-12-15T21:57:13.228Z,30.60
2022-12-15T21:59:40.352Z,21.70
2022-12-15T22:02:39.537Z,23.75
2022-12-15T22:05:22.628Z,25.83
2022-12-15T22:07:49.753Z,21.48
2022-12-15T22:10:20.382Z,24.67
2022-12-15T22:12:59.099Z,20.40
2022-12-15T22:15:26.612Z,23.50
2022-12-15T22:17:53.465Z,22.88
2022-12-15T22:20:24.187Z,24.70
2022-12-15T22:22:51.206Z,23.27
2022-12-15T22:25:22.918Z,25.35
2022-12-15T22:27:50.376Z,21.40
2022-12-15T22:30:21.038Z,24.92
2022-12-15T22:32:48.055Z,22.13
2022-12-15T22:35:24.651Z,21.42
2022-12-15T22:37:53.979Z,21.20
2022-12-15T22:40:22.438Z,19.83
2022-12-15T22:42:51.304Z,23.85
2022-12-15T22:45:19.626Z,22.77
2022-12-15T22:47:47.241Z,21.15
2022-12-15T22:50:21.071Z,24.33
2022-12-15T22:52:48.170Z,20.05
2022-12-15T22:55:19.504Z,23.02
2022-12-15T22:57:50.214Z,21.02
2022-12-15T23:00:17.266Z,20.60
2022-12-15T23:02:45.297Z,19.95
2022-12-15T23:05:16.551Z,21.33
2022-12-15T23:07:43.757Z,23.88
2022-12-15T23:10:30.466Z,20.95
2022-12-15T23:12:57.307Z,21.92
2022-12-15T23:15:43.374Z,23.30
2022-12-15T23:18:10.355Z,23.60
2022-12-15T23:20:37.129Z,22.65
2022-12-15T23:23:04.643Z,26.63
2022-12-15T23:25:31.548Z,20.63
2022-12-15T23:27:58.422Z,19.88
2022-12-15T23:30:25.459Z,22.75
2022-12-15T23:32:55.131Z,18.60
2022-12-15T23:35:22.594Z,18.92
2022-12-15T23:37:49.511Z,18.63
2022-12-15T23:40:21.978Z,20.42
2022-12-15T23:42:49.793Z,22.83
2022-12-15T23:45:17.987Z,22.25
2022-12-15T23:47:44.987Z,18.13
2022-12-15T23:50:11.829Z,21.33
2022-12-15T23:52:38.775Z,20.50
2022-12-15T23:55:08.973Z,20.60
2022-12-15T23:57:36.566Z,22.23
